createdAt,value
2023-12-12T00:01:07.170Z,60.05
2023-12-12T00:03:34.697Z,60.37
2023-12-12T00:06:02.606Z,60.68
2023-12-12T00:08:29.269Z,60.87
2023-12-12T00:10:58.557Z,61.76
2023-12-12T00:13:25.281Z,61.24
2023-12-12T00:15:52.045Z,60.41
2023-12-12T00:18:18.830Z,60.26
2023-12-12T00:20:46.082Z,60.24
2023-12-12T00:23:12.738Z,60.09
2023-12-12T00:25:39.341Z,59.95
2023-12-12T00:28:06.121Z,59.46
2023-12-12T00:30:32.835Z,59.86
2023-12-12T00:32:59.605Z,59.89
2023-12-12T00:35:26.357Z,61.71
2023-12-12T00:37:53.370Z,61.73
2023-12-12T00:40:20.546Z,60.63
2023-12-12T00:42:47.231Z,60.20
2023-12-12T00:45:14.009Z,60.13
2023-12-12T00:47:40.776Z,61.08
2023-12-12T00:50:08.325Z,61.32
2023-12-12T00:52:36.123Z,61.01
2023-12-12T00:55:03.506Z,59.93
2023-12-12T00:57:30.758Z,60.29
2023-12-12T00:59:57.590Z,60.92
2023-12-12T01:02:27.517Z,60.88
2023-12-12T01:04:54.811Z,61.51
2023-12-12T01:07:21.562Z,61.90
2023-12-12T01:09:48.566Z,61.55
2023-12-12T01:12:15.272Z,64.41
2023-12-12T01:14:41.991Z,63.48
2023-12-12T01:17:08.706Z,63.69
2023-12-12T01:19:35.520Z,62.42
2023-12-12T01:22:02.338Z,62.75
2023-12-12T01:24:31.381Z,62.20
2023-12-12T01:26:58.036Z,61.40
2023-12-12T01:29:24.679Z,61.12
2023-12-12T01:31:51.377Z,60.94
2023-12-12T01:34:18.214Z,61.14
2023-12-12T01:36:44.942Z,63.38
2023-12-12T01:39:11.632Z,62.96
2023-12-12T01:41:38.370Z,61.83
2023-12-12T01:44:05.123Z,60.98
2023-12-12T01:46:33.589Z,61.48
2023-12-12T01:49:00.545Z,61.03
2023-12-12T01:51:27.572Z,61.36
2023-12-12T01:53:54.544Z,63.91
2023-12-12T01:56:21.948Z,61.94
2023-12-12T01:58:52.400Z,63.75
2023-12-12T02:01:20.108Z,63.45
2023-12-12T02:03:47.303Z,62.06
2023-12-12T02:06:22.801Z,62.01
2023-12-12T02:08:53.514Z,62.17
2023-12-12T02:11:20.568Z,61.72
2023-12-12T02:13:47.312Z,61.84
2023-12-12T02:16:14.988Z,63.01
2023-12-12T02:18:41.986Z,62.48
2023-12-12T02:21:08.860Z,61.22
2023-12-12T02:23:35.718Z,62.35
2023-12-12T02:26:03.996Z,65.20
2023-12-12T02:28:30.774Z,65.27
2023-12-12T02:30:59.892Z,64.10
2023-12-12T02:33:26.744Z,63.93
2023-12-12T02:35:53.437Z,64.59
2023-12-12T02:38:20.168Z,64.01
2023-12-12T02:40:46.906Z,64.10
2023-12-12T02:43:13.853Z,65.13
2023-12-12T02:45:40.579Z,63.64
2023-12-12T02:48:07.332Z,64.39
2023-12-12T02:50:33.977Z,63.58
2023-12-12T02:53:00.704Z,64.07
2023-12-12T02:55:27.420Z,64.03
2023-12-12T02:57:54.163Z,63.57
2023-12-12T03:00:21.025Z,63.17
2023-12-12T03:02:47.968Z,63.03
2023-12-12T03:05:14.722Z,63.48
2023-12-12T03:07:41.546Z,63.28
2023-12-12T03:10:08.952Z,62.87
2023-12-12T03:12:35.779Z,62.99
2023-12-12T03:15:02.558Z,63.30
2023-12-12T03:17:29.374Z,63.42
2023-12-12T03:19:56.447Z,63.79
2023-12-12T03:22:23.072Z,63.97
2023-12-12T03:24:49.770Z,62.01
2023-12-12T03:27:16.460Z,60.17
2023-12-12T03:29:43.197Z,59.92
2023-12-12T03:32:09.886Z,59.19
2023-12-12T03:34:36.657Z,58.55
2023-12-12T03:37:03.406Z,58.39
2023-12-12T03:39:30.058Z,58.16
2023-12-12T03:41:56.688Z,58.06
2023-12-12T03:44:23.293Z,57.72
2023-12-12T03:46:49.924Z,57.68
2023-12-12T03:49:16.729Z,57.80
2023-12-12T03:51:43.829Z,58.26
2023-12-12T03:54:10.493Z,58.38
2023-12-12T03:56:37.109Z,58.39
2023-12-12T03:59:03.911Z,57.54
2023-12-12T04:01:30.719Z,57.37
2023-12-12T04:03:57.557Z,57.12
2023-12-12T04:06:24.506Z,57.41
2023-12-12T04:08:51.711Z,56.27
2023-12-12T04:11:18.372Z,56.59
2023-12-12T04:13:45.098Z,56.42
2023-12-12T04:16:11.908Z,55.69
2023-12-12T04:18:38.677Z,56.44
2023-12-12T04:21:06.744Z,62.02
2023-12-12T04:23:36.363Z,62.61
2023-12-12T04:26:04.167Z,65.55
2023-12-12T04:28:31.083Z,67.18
2023-12-12T04:30:57.829Z,71.30
2023-12-12T04:33:24.478Z,73.85
2023-12-12T04:35:51.167Z,68.61
2023-12-12T04:38:18.177Z,66.15
2023-12-12T04:40:44.803Z,67.68
2023-12-12T04:43:11.505Z,68.51
2023-12-12T04:45:38.172Z,65.95
2023-12-12T04:48:05.187Z,69.73
2023-12-12T04:50:32.054Z,68.31
2023-12-12T04:52:58.761Z,66.25
2023-12-12T04:55:25.468Z,66.06
2023-12-12T04:57:52.270Z,68.13
2023-12-12T05:00:19.752Z,67.08
2023-12-12T05:02:47.122Z,67.51
2023-12-12T05:05:14.014Z,73.72
2023-12-12T05:07:40.890Z,69.96
2023-12-12T05:10:08.368Z,66.44
2023-12-12T05:12:36.089Z,67.16
2023-12-12T05:15:03.619Z,66.01
2023-12-12T05:17:30.854Z,65.39
2023-12-12T05:20:00.468Z,64.25
2023-12-12T05:22:27.520Z,63.57
2023-12-12T05:24:54.252Z,62.85
2023-12-12T05:27:21.931Z,62.75
2023-12-12T05:29:48.753Z,62.76
2023-12-12T05:32:15.844Z,63.06
2023-12-12T05:34:42.739Z,62.44
2023-12-12T05:37:09.563Z,61.55
2023-12-12T05:39:36.468Z,61.72
2023-12-12T05:42:04.224Z,61.62
2023-12-12T05:44:33.152Z,61.58
2023-12-12T05:47:00.231Z,62.48
2023-12-12T05:49:27.186Z,61.90
2023-12-12T05:51:54.136Z,62.06
2023-12-12T05:54:23.940Z,62.39
2023-12-12T05:56:52.694Z,63.93
2023-12-12T05:59:19.381Z,65.02
2023-12-12T06:01:46.174Z,63.60
2023-12-12T06:04:16.038Z,63.02
2023-12-12T06:06:44.554Z,62.22
2023-12-12T06:09:12.901Z,62.25
2023-12-12T06:11:40.420Z,61.92
2023-12-12T06:14:07.471Z,62.48
2023-12-12T06:16:35.666Z,61.66
2023-12-12T06:19:06.271Z,61.34
2023-12-12T06:21:34.291Z,61.52
2023-12-12T06:24:03.435Z,62.78
2023-12-12T06:26:31.095Z,62.23
2023-12-12T06:28:57.876Z,61.65
2023-12-12T06:31:24.981Z,61.51
2023-12-12T06:33:53.307Z,62.57
2023-12-12T06:36:20.289Z,61.37
2023-12-12T06:38:47.101Z,61.47
2023-12-12T06:41:13.739Z,60.46
2023-12-12T06:43:41.127Z,60.52
2023-12-12T06:46:09.288Z,61.86
2023-12-12T06:48:38.344Z,64.42
2023-12-12T06:51:06.173Z,63.14
2023-12-12T06:53:32.972Z,62.43
2023-12-12T06:55:59.611Z,63.46
2023-12-12T06:58:26.329Z,63.01
2023-12-12T07:00:53.273Z,63.69
2023-12-12T07:03:20.241Z,64.22
2023-12-12T07:05:47.097Z,67.01
2023-12-12T07:08:13.840Z,66.46
2023-12-12T07:10:41.541Z,63.95
2023-12-12T07:15:52.542Z,62.49
2023-12-12T07:18:19.352Z,64.27
2023-12-12T07:20:46.153Z,62.32
2023-12-12T07:23:16.013Z,61.52
2023-12-12T07:25:44.381Z,60.87
2023-12-12T07:28:11.353Z,61.29
2023-12-12T07:30:38.197Z,61.22
2023-12-12T07:33:05.152Z,61.14
2023-12-12T07:35:31.940Z,60.33
2023-12-12T07:37:59.201Z,60.17
2023-12-12T07:40:25.989Z,59.83
2023-12-12T07:42:52.826Z,59.86
2023-12-12T07:45:19.751Z,59.57
2023-12-12T07:47:47.015Z,59.56
2023-12-12T07:50:14.060Z,59.79
2023-12-12T07:52:41.126Z,60.36
2023-12-12T07:55:08.133Z,62.03
2023-12-12T07:57:35.421Z,61.04
2023-12-12T08:00:02.351Z,59.99
2023-12-12T08:02:29.868Z,59.01
2023-12-12T08:04:56.508Z,58.44
2023-12-12T08:07:24.261Z,58.09
2023-12-12T08:09:51.130Z,57.13
2023-12-12T08:12:18.269Z,56.35
2023-12-12T08:14:47.445Z,55.30
2023-12-12T08:17:15.726Z,54.24
2023-12-12T08:19:43.382Z,55.18
2023-12-12T08:22:10.223Z,55.25
2023-12-12T08:24:36.940Z,54.94
2023-12-12T08:27:03.681Z,54.52
2023-12-12T08:29:32.229Z,54.08
2023-12-12T08:31:59.432Z,53.07
2023-12-12T08:34:26.506Z,52.66
2023-12-12T08:36:53.259Z,53.34
2023-12-12T08:39:20.236Z,52.86
2023-12-12T08:41:46.953Z,52.04
2023-12-12T08:44:13.644Z,52.73
2023-12-12T08:46:45.010Z,53.44
2023-12-12T08:49:12.105Z,54.29
2023-12-12T08:51:40.544Z,54.52
2023-12-12T08:54:07.543Z,54.58
2023-12-12T08:56:34.368Z,55.14
2023-12-12T08:59:01.109Z,54.76
2023-12-12T09:01:28.114Z,54.31
2023-12-12T09:03:55.387Z,53.82
2023-12-12T09:06:22.299Z,52.46
2023-12-12T09:08:49.222Z,52.77
2023-12-12T09:11:16.248Z,52.34
2023-12-12T09:13:44.507Z,52.94
2023-12-12T09:16:11.590Z,54.53
2023-12-12T09:18:39.216Z,53.46
2023-12-12T09:21:07.842Z,53.58
2023-12-12T09:23:34.847Z,53.25
2023-12-12T09:26:02.417Z,52.27
2023-12-12T09:28:29.103Z,52.52
2023-12-12T09:30:55.924Z,52.92
2023-12-12T09:33:23.079Z,52.84
2023-12-12T09:35:51.285Z,54.50
2023-12-12T09:38:18.158Z,54.26
2023-12-12T09:40:45.182Z,53.45
2023-12-12T09:43:13.809Z,52.55
2023-12-12T09:45:46.674Z,52.83
2023-12-12T09:48:17.210Z,53.27
2023-12-12T09:50:48.454Z,52.26
2023-12-12T09:53:15.683Z,52.69
2023-12-12T09:55:42.569Z,51.46
2023-12-12T09:58:09.325Z,52.27
2023-12-12T10:00:36.120Z,52.46
2023-12-12T10:03:06.672Z,52.31
2023-12-12T10:05:39.390Z,51.47
2023-12-12T10:08:14.038Z,51.99
2023-12-12T10:10:44.790Z,53.58
2023-12-12T10:13:12.405Z,52.46
2023-12-12T10:15:39.249Z,51.78
2023-12-12T10:18:06.534Z,51.45
2023-12-12T10:20:36.655Z,51.58
2023-12-12T10:23:06.470Z,52.19
2023-12-12T10:25:35.732Z,51.95
2023-12-12T10:28:03.409Z,51.91
2023-12-12T10:30:30.636Z,51.26
2023-12-12T10:32:57.618Z,51.86
2023-12-12T10:35:26.606Z,50.94
2023-12-12T10:37:54.456Z,50.98
2023-12-12T10:40:23.935Z,51.67
2023-12-12T10:42:52.288Z,51.30
2023-12-12T10:45:19.438Z,51.69
2023-12-12T10:47:51.940Z,50.63
2023-12-12T10:50:20.397Z,51.01
2023-12-12T10:52:49.926Z,52.39
2023-12-12T10:55:18.526Z,53.31
2023-12-12T10:57:48.340Z,52.56
2023-12-12T11:00:19.038Z,52.93
2023-12-12T11:02:47.843Z,52.89
2023-12-12T11:05:16.742Z,55.01
2023-12-12T11:07:49.644Z,55.53
2023-12-12T11:10:20.665Z,54.91
2023-12-12T11:12:52.877Z,53.59
2023-12-12T11:15:20.666Z,53.82
2023-12-12T11:17:48.905Z,54.92
2023-12-12T11:20:18.540Z,54.86
2023-12-12T11:22:53.313Z,53.47
2023-12-12T11:25:22.401Z,54.43
2023-12-12T11:27:58.669Z,52.85
2023-12-12T11:30:51.859Z,54.12
2023-12-12T11:33:18.637Z,55.01
2023-12-12T11:35:47.171Z,55.07
2023-12-12T11:38:31.287Z,54.78
2023-12-12T11:41:10.796Z,56.25
2023-12-12T11:43:37.659Z,55.92
2023-12-12T11:46:21.979Z,54.31
2023-12-12T11:48:49.122Z,53.17
2023-12-12T11:51:34.559Z,53.98
2023-12-12T11:54:08.043Z,53.09
2023-12-12T11:56:35.228Z,52.65
2023-12-12T11:59:02.327Z,51.94
2023-12-12T12:01:29.150Z,51.64
2023-12-12T12:03:55.920Z,51.38
2023-12-12T12:06:22.816Z,51.25
2023-12-12T12:08:51.628Z,51.56
2023-12-12T12:11:18.340Z,52.76
2023-12-12T12:13:45.093Z,51.82
2023-12-12T12:16:12.361Z,51.93
2023-12-12T12:18:39.943Z,52.88
2023-12-12T12:21:09.127Z,52.33
2023-12-12T12:23:40.111Z,51.83
2023-12-12T12:26:07.178Z,50.76
2023-12-12T12:28:35.184Z,51.39
2023-12-12T12:31:03.119Z,51.80
2023-12-12T12:33:34.013Z,52.09
2023-12-12T12:36:00.863Z,50.95
2023-12-12T12:38:35.264Z,51.05
2023-12-12T12:41:02.107Z,51.30
2023-12-12T12:43:28.862Z,51.70
2023-12-12T12:45:57.735Z,51.33
2023-12-12T12:48:28.653Z,50.06
2023-12-12T12:50:57.156Z,50.71
2023-12-12T12:53:23.855Z,51.13
2023-12-12T12:55:50.768Z,50.58
2023-12-12T12:58:17.671Z,50.78
2023-12-12T13:00:46.925Z,51.76
2023-12-12T13:03:14.693Z,50.33
2023-12-12T13:05:41.834Z,51.03
2023-12-12T13:08:08.722Z,50.97
2023-12-12T13:10:44.083Z,49.96
2023-12-12T13:13:17.370Z,50.26
2023-12-12T13:15:44.326Z,49.95
2023-12-12T13:18:11.203Z,50.54
2023-12-12T13:20:38.045Z,51.37
2023-12-12T13:23:04.767Z,51.12
2023-12-12T13:25:32.660Z,50.49
2023-12-12T13:27:59.708Z,51.14
2023-12-12T13:30:26.957Z,51.38
2023-12-12T13:32:54.001Z,51.20
2023-12-12T13:35:33.749Z,51.22
2023-12-12T13:38:04.866Z,51.39
2023-12-12T13:40:32.846Z,50.67
2023-12-12T13:42:59.861Z,51.48
2023-12-12T13:45:26.728Z,51.65
2023-12-12T13:47:54.123Z,51.48
2023-12-12T13:50:22.760Z,51.64
2023-12-12T13:52:49.573Z,50.65
2023-12-12T13:55:16.268Z,51.12
2023-12-12T13:57:42.989Z,50.66
2023-12-12T14:00:10.986Z,50.96
2023-12-12T14:02:38.624Z,51.27
2023-12-12T14:05:06.369Z,51.27
2023-12-12T14:07:34.107Z,51.38
2023-12-12T14:10:00.870Z,51.15
2023-12-12T14:12:27.683Z,51.99
2023-12-12T14:14:54.769Z,52.21
2023-12-12T14:17:21.817Z,51.57
2023-12-12T14:19:48.757Z,51.56
2023-12-12T14:22:15.604Z,51.53
2023-12-12T14:24:42.383Z,51.15
2023-12-12T14:27:09.182Z,51.04
2023-12-12T14:29:36.305Z,51.14
2023-12-12T14:32:03.067Z,51.23
2023-12-12T14:34:29.962Z,51.64
2023-12-12T14:36:56.749Z,51.36
2023-12-12T14:39:24.740Z,52.67
2023-12-12T14:41:51.346Z,52.43
2023-12-12T14:44:18.040Z,52.43
2023-12-12T14:46:44.791Z,51.99
2023-12-12T14:49:11.636Z,51.80
2023-12-12T14:51:38.448Z,51.90
2023-12-12T14:54:05.657Z,52.16
2023-12-12T14:56:33.559Z,52.15
2023-12-12T14:59:00.536Z,52.88
2023-12-12T15:01:27.885Z,52.72
2023-12-12T15:03:55.351Z,52.35
2023-12-12T15:06:23.182Z,53.62
2023-12-12T15:08:49.880Z,52.71
2023-12-12T15:11:16.577Z,52.68
2023-12-12T15:13:43.289Z,52.72
2023-12-12T15:16:10.866Z,52.70
2023-12-12T15:18:38.161Z,52.91
2023-12-12T15:21:06.076Z,52.16
2023-12-12T15:23:36.564Z,51.54
2023-12-12T15:26:04.504Z,51.56
2023-12-12T15:28:31.242Z,51.76
2023-12-12T15:30:59.524Z,53.79
2023-12-12T15:33:27.071Z,53.31
2023-12-12T15:35:54.044Z,54.70
2023-12-12T15:38:20.756Z,54.56
2023-12-12T15:40:47.706Z,54.21
2023-12-12T15:43:14.996Z,54.80
2023-12-12T15:45:42.207Z,55.45
2023-12-12T15:48:09.137Z,55.24
2023-12-12T15:50:37.214Z,54.54
2023-12-12T15:53:04.051Z,54.07
2023-12-12T15:55:31.217Z,54.08
2023-12-12T15:57:58.474Z,55.30
2023-12-12T16:00:25.827Z,55.23
2023-12-12T16:02:52.686Z,54.39
2023-12-12T16:05:20.684Z,55.14
2023-12-12T16:07:48.772Z,54.75
2023-12-12T16:10:16.613Z,54.82
2023-12-12T16:12:43.373Z,61.37
2023-12-12T16:15:10.239Z,62.61
2023-12-12T16:17:37.931Z,63.01
2023-12-12T16:20:06.661Z,59.72
2023-12-12T16:22:34.819Z,58.07
2023-12-12T16:25:01.882Z,57.06
2023-12-12T16:27:28.790Z,57.49
2023-12-12T16:29:55.578Z,56.64
2023-12-12T16:32:23.495Z,56.23
2023-12-12T16:34:52.847Z,56.81
2023-12-12T16:37:20.357Z,56.65
2023-12-12T16:39:47.102Z,56.39
2023-12-12T16:42:16.030Z,56.91
2023-12-12T16:44:43.290Z,56.19
2023-12-12T16:47:10.966Z,56.59
2023-12-12T16:49:37.961Z,58.46
2023-12-12T16:52:05.077Z,57.33
2023-12-12T16:54:34.831Z,57.09
2023-12-12T16:57:01.625Z,57.85
2023-12-12T20:31:21.292Z,60.17
2023-12-12T20:33:48.096Z,60.29
2023-12-12T20:36:17.704Z,59.90
2023-12-12T20:38:45.185Z,59.81
2023-12-12T20:41:12.538Z,59.55
2023-12-12T20:43:40.190Z,59.53
2023-12-12T20:46:08.849Z,59.67
2023-12-12T20:48:35.577Z,59.64
2023-12-12T20:51:03.416Z,59.47
2023-12-12T20:53:31.218Z,60.22
2023-12-12T20:55:58.249Z,60.06
2023-12-12T20:58:24.904Z,60.04
2023-12-12T21:00:51.590Z,59.93
2023-12-12T21:03:18.383Z,61.51
2023-12-12T21:05:45.065Z,61.18
2023-12-12T21:08:11.753Z,60.33
2023-12-12T21:10:40.338Z,60.18
2023-12-12T21:13:07.227Z,60.12
2023-12-12T21:15:34.008Z,59.94
2023-12-12T21:18:00.999Z,59.98
2023-12-12T21:20:27.849Z,60.11
2023-12-12T21:22:54.579Z,60.27
2023-12-12T21:25:21.295Z,60.42
2023-12-12T21:27:48.152Z,61.49
2023-12-12T21:30:15.092Z,63.52
2023-12-12T21:32:42.662Z,62.55
2023-12-12T21:35:10.286Z,61.93
2023-12-12T21:37:37.646Z,61.98
2023-12-12T21:40:06.502Z,62.61
2023-12-12T21:42:33.330Z,61.57
2023-12-12T21:44:59.988Z,61.11
2023-12-12T21:47:26.785Z,60.82
2023-12-12T21:49:53.654Z,61.01
2023-12-12T21:52:20.680Z,61.27
2023-12-12T21:54:47.681Z,61.03
2023-12-12T21:57:14.506Z,63.09
2023-12-12T21:59:41.148Z,62.41
2023-12-12T22:02:07.947Z,62.17
2023-12-12T22:04:34.706Z,62.48
2023-12-12T22:07:02.531Z,61.87
2023-12-12T22:09:29.303Z,61.82
2023-12-12T22:11:56.061Z,61.59
2023-12-12T22:14:22.973Z,62.63
2023-12-12T22:16:49.714Z,62.56
2023-12-12T22:19:16.524Z,62.30
2023-12-12T22:21:43.265Z,62.84
2023-12-12T22:24:09.980Z,62.22
2023-12-12T22:26:36.727Z,62.02
2023-12-12T22:29:04.042Z,61.65
2023-12-12T22:31:30.986Z,61.86
2023-12-12T22:33:57.870Z,61.85
2023-12-12T22:36:24.608Z,62.25
2023-12-12T22:38:51.380Z,65.65
2023-12-12T22:41:21.752Z,63.70
2023-12-12T22:43:49.014Z,64.54
2023-12-12T22:46:20.001Z,63.70
2023-12-12T22:48:47.328Z,63.17
2023-12-12T22:51:20.337Z,64.17
2023-12-12T22:53:47.104Z,64.47
2023-12-12T22:56:14.411Z,64.31
2023-12-12T22:58:42.158Z,64.07
2023-12-12T23:01:11.316Z,63.16
2023-12-12T23:03:38.245Z,62.43
2023-12-12T23:06:06.490Z,62.46
2023-12-12T23:08:36.602Z,62.32
2023-12-12T23:11:04.003Z,62.51
2023-12-12T23:13:30.747Z,62.45
2023-12-12T23:15:57.494Z,62.28
2023-12-12T23:18:24.374Z,62.24
2023-12-12T23:20:54.076Z,61.90
2023-12-12T23:23:23.241Z,61.54
2023-12-12T23:25:50.193Z,62.05
2023-12-12T23:28:17.314Z,62.17
2023-12-12T23:30:57.227Z,62.04
2023-12-12T23:33:31.971Z,62.81
2023-12-12T23:35:58.636Z,62.80
2023-12-12T23:38:25.217Z,62.27
2023-12-12T23:40:51.882Z,63.14
2023-12-12T23:43:18.661Z,62.43
2023-12-12T23:45:46.619Z,62.01
2023-12-12T23:48:13.434Z,61.67
2023-12-12T23:50:40.123Z,61.65
2023-12-12T23:53:07.012Z,61.64
2023-12-12T23:55:33.876Z,61.43
2023-12-12T23:58:00.795Z,61.46
